Airfield :
LOGIN :

Register | Disclaimer

   EN    FR    IT 

 










Legend :    VFR   Marginal VFR   IFR   Intensive IFR   Very Intensive IFR
Visi :
Ceiling :
>= 8 km
>= 3000ft
5 to 8 km
1000 to 3000 ft
1500m to 5 km
500 to 1000 ft
800 to 1500m
200 to 500 ft
< 800m
< 200 ft
Symbols :   Thunderstorms  Fog  Heavy snow  Heavy precipitations  Wind > 20 kt
SIGMETs :     Misc.  Thunderstorms  Icing  Turbulence  Mountain Waves  Volcanic Ashes






- Airport Elevation : 266 ft
- IATA code : NCL


EGNT - Newcastle

CURRENT METAR :
  • 191450Z 09004KT 3000 -RA BR BKN003 06/05 Q0992

EXPIRED METARs :
  • 191350Z VRB01KT 2500 -RA BR BKN003 06/05 Q0994
  • 191320Z 13002KT 2500 BR BKN003 06/05 Q0994
  • 191250Z 12002KT 2500 BR BKN003 06/05 Q0995

TAF TAF EGNT
Valid from the 19 at 12:00 until the 20 at 12:00 UTC


191055Z 1912/2012 VRB04KT 9999 SCT004 BKN040
TEMPO 1912/1916 3000 DZRA BR BKN004
PROB40
TEMPO 1912/1914 0300 FG VV///
BECMG 1916/1919 BKN008
TEMPO 1916/2012 6000 RA BKN004
PROB40
TEMPO 1916/2012 2000 +DZRA BR BKN001
ATIS : +44 191 214 3400



MET'MAP, your aeronautical weather chart ! - Copyright ORBIFLY December 2007 - Disclaimer

ORBIFLY MET'MAP TEAM :

Programming & Development : Alexandra Zaïnal
Concept & original design : Baudouin d'Aumeries
Assistance for programming : Marc-Olivier Méhu
Technical & hardware support : Manuel Goepfert

Contact : metmap@orbifly.com




SOURCES & CREDITS :

   NOAA